Time;durP1;ratioP1;P1;durP2;ratioP2;P2;SDS_P1;SDS_P2;PMS_P1;PMS_P2;Temp;Humidity;BMP_temperature;BMP_pressure;BME280_temperature;BME280_humidity;BME280_pressure;Samples;Min_cycle;Max_cycle;Signal;HPM_P1;HPM_P2
2023/12/28 00:02:05;;;;;;;3.22;1.20;;;13.80;66.30;;;;;;2247631;56;21076;-68
2023/12/28 00:04:33;;;;;;;2.83;1.20;;;13.80;66.30;;;;;;2465171;55;21751;-68
2023/12/28 00:06:59;;;;;;;3.10;1.20;;;13.80;66.30;;;;;;2237087;56;20954;-67
2023/12/28 00:09:26;;;;;;;3.62;1.33;;;13.80;66.10;;;;;;2475336;55;20973;-67
2023/12/28 00:11:52;;;;;;;4.03;1.62;;;13.80;66.20;;;;;;2459988;55;20970;-67
2023/12/28 00:14:18;;;;;;;2.40;1.25;;;13.80;66.20;;;;;;2246311;56;21047;-67
2023/12/28 00:16:45;;;;;;;2.80;1.30;;;13.80;66.10;;;;;;2466657;56;21537;-68
2023/12/28 00:19:11;;;;;;;3.30;1.20;;;13.80;66.80;;;;;;2272598;57;21097;-68
2023/12/28 00:21:38;;;;;;;1.83;0.95;;;13.80;66.10;;;;;;2503465;55;21490;-68
2023/12/28 00:24:05;;;;;;;4.53;2.00;;;13.80;66.20;;;;;;2272553;56;20948;-68
2023/12/28 00:26:31;;;;;;;3.83;1.50;;;13.80;66.10;;;;;;2272095;56;21020;-68
2023/12/28 00:28:57;;;;;;;3.10;1.20;;;13.80;66.10;;;;;;2272745;56;20980;-68
2023/12/28 00:31:24;;;;;;;3.10;1.20;;;13.80;66.10;;;;;;2271485;56;21518;-67
2023/12/28 00:33:50;;;;;;;2.87;1.27;;;13.80;65.90;;;;;;2274828;57;21016;-67
2023/12/28 00:36:18;;;;;;;3.58;1.40;;;13.80;65.90;;;;;;2486002;55;20921;-67
2023/12/28 00:38:45;;;;;;;2.60;1.20;;;13.90;66.00;;;;;;2272390;57;20976;-67
2023/12/28 00:41:12;;;;;;;2.28;1.00;;;13.90;66.10;;;;;;2238319;57;21534;-67
2023/12/28 00:43:38;;;;;;;2.50;1.10;;;13.80;66.10;;;;;;2433943;55;20947;-69
2023/12/28 00:46:05;;;;;;;3.35;1.60;;;13.80;65.90;;;;;;2463394;56;20939;-68
2023/12/28 00:48:32;;;;;;;3.85;1.65;;;13.90;65.90;;;;;;2236460;56;20946;-68
2023/12/28 00:51:01;;;;;;;4.35;1.83;;;13.90;65.90;;;;;;2472816;55;20986;-67
2023/12/28 00:53:31;;;;;;;3.12;1.35;;;13.90;66.00;;;;;;2472805;56;21990;-67
2023/12/28 00:55:57;;;;;;;3.72;1.50;;;13.90;65.90;;;;;;2471155;55;20986;-68
2023/12/28 00:58:23;;;;;;;3.67;1.70;;;13.90;65.90;;;;;;2232233;56;20985;-68
2023/12/28 01:00:55;;;;;;;3.20;1.60;;;13.90;65.80;;;;;;2473307;55;21058;-68
2023/12/28 01:03:21;;;;;;;3.53;1.45;;;13.90;65.80;;;;;;2480534;55;21034;-68
2023/12/28 01:05:50;;;;;;;4.30;1.58;;;14.00;65.80;;;;;;2241570;57;21967;-67
2023/12/28 01:08:17;;;;;;;2.70;1.30;;;14.10;65.80;;;;;;2460869;55;21078;-68
2023/12/28 01:10:44;;;;;;;3.37;1.35;;;14.00;65.70;;;;;;2262659;56;20973;-68
2023/12/28 01:13:11;;;;;;;2.95;1.35;;;14.00;65.70;;;;;;2473871;55;21615;-69
2023/12/28 01:15:39;;;;;;;2.35;1.10;;;14.00;65.70;;;;;;2237049;55;20979;-67
2023/12/28 01:18:06;;;;;;;3.03;1.12;;;14.00;65.60;;;;;;2243433;56;21002;-67
2023/12/28 01:20:34;;;;;;;2.75;1.10;;;14.00;65.60;;;;;;2466929;55;20950;-68
2023/12/28 01:26:32;;;;;;;2.87;1.30;;;14.00;64.10;;;;;;2472238;55;21026;-68
2023/12/28 01:29:01;;;;;;;3.37;1.27;;;14.00;65.10;;;;;;2464819;55;20982;-67
2023/12/28 01:31:27;;;;;;;3.00;1.37;;;14.00;65.40;;;;;;2244662;56;20995;-67
2023/12/28 01:33:54;;;;;;;2.47;1.20;;;14.00;65.30;;;;;;2470034;56;20991;-69
2023/12/28 01:36:20;;;;;;;2.80;1.00;;;14.00;65.30;;;;;;2235384;57;20970;-68
2023/12/28 01:38:48;;;;;;;2.58;1.15;;;14.00;65.20;;;;;;2245565;56;21378;-67
2023/12/28 01:41:15;;;;;;;2.78;1.20;;;13.90;65.10;;;;;;2251238;56;20992;-67
2023/12/28 01:43:42;;;;;;;2.90;1.10;;;13.90;64.90;;;;;;2231401;57;21054;-68
2023/12/28 01:46:10;;;;;;;3.37;1.77;;;13.90;64.90;;;;;;2242104;56;21524;-68
2023/12/28 01:48:37;;;;;;;3.20;1.20;;;13.90;65.00;;;;;;2463328;55;21007;-68
2023/12/28 01:51:03;;;;;;;3.75;1.70;;;13.90;65.00;;;;;;2248574;56;20972;-68
2023/12/28 01:53:30;;;;;;;2.92;1.35;;;13.90;65.00;;;;;;2240724;56;20931;-67
2023/12/28 01:55:56;;;;;;;2.75;1.23;;;13.90;65.00;;;;;;2236923;56;20981;-67
2023/12/28 01:58:23;;;;;;;2.70;1.40;;;13.90;65.00;;;;;;2247380;56;21027;-67
2023/12/28 02:00:50;;;;;;;2.60;1.10;;;13.90;64.90;;;;;;2503168;54;21048;-68
2023/12/28 02:03:18;;;;;;;3.47;1.30;;;13.90;65.10;;;;;;2503011;55;21038;-67
2023/12/28 02:05:45;;;;;;;3.35;1.42;;;13.90;65.20;;;;;;2270982;57;25672;-67
2023/12/28 02:08:11;;;;;;;2.90;1.23;;;13.90;65.10;;;;;;2503531;55;22300;-67
2023/12/28 02:10:40;;;;;;;4.60;1.12;;;13.90;65.10;;;;;;2504196;55;21019;-68
2023/12/28 02:13:09;;;;;;;2.60;1.27;;;13.90;65.00;;;;;;2272194;57;21016;-67
2023/12/28 02:15:37;;;;;;;3.87;1.30;;;13.90;64.70;;;;;;2272662;56;20933;-67
2023/12/28 02:18:09;;;;;;;2.55;1.20;;;13.90;65.10;;;;;;2273687;57;21012;-68
2023/12/28 02:20:35;;;;;;;2.83;1.15;;;13.90;64.80;;;;;;2496482;55;21605;-68
2023/12/28 02:23:02;;;;;;;2.72;1.17;;;13.90;65.10;;;;;;2257992;56;21055;-68
2023/12/28 02:25:30;;;;;;;3.47;1.25;;;13.90;65.20;;;;;;2265280;56;21292;-67
2023/12/28 02:27:56;;;;;;;3.78;1.20;;;13.90;65.20;;;;;;2273208;57;20943;-67
2023/12/28 02:30:28;;;;;;;2.47;1.15;;;13.90;65.10;;;;;;2247758;56;20999;-68
2023/12/28 02:33:07;;;;;;;2.50;1.08;;;13.90;65.00;;;;;;2260965;56;21035;-68
2023/12/28 02:36:18;;;;;;;1.97;0.97;;;14.00;64.70;;;;;;2262584;56;21526;-68
2023/12/28 02:38:45;;;;;;;2.75;1.10;;;14.00;62.60;;;;;;2253736;56;20949;-67
2023/12/28 02:41:12;;;;;;;3.10;1.40;;;14.00;65.20;;;;;;2486028;54;21571;-67
2023/12/28 02:43:39;;;;;;;2.95;1.30;;;13.90;64.90;;;;;;2263429;56;21043;-68
2023/12/28 02:46:06;;;;;;;2.83;1.20;;;14.00;65.00;;;;;;2252693;56;20962;-68
2023/12/28 02:48:32;;;;;;;2.50;1.00;;;14.00;65.00;;;;;;2509845;54;20993;-68
2023/12/28 02:50:59;;;;;;;2.58;1.12;;;14.00;65.00;;;;;;2512312;54;20940;-67
2023/12/28 02:53:25;;;;;;;2.90;1.17;;;13.90;64.90;;;;;;2301306;56;20971;-67
2023/12/28 02:55:51;;;;;;;4.30;1.05;;;13.90;64.90;;;;;;2522344;54;21049;-67
2023/12/28 02:58:19;;;;;;;4.32;1.40;;;13.90;65.00;;;;;;2516931;54;20984;-67
2023/12/28 03:00:45;;;;;;;3.00;1.30;;;13.90;64.90;;;;;;2537184;54;20928;-68
2023/12/28 03:03:12;;;;;;;2.90;1.00;;;14.00;65.00;;;;;;2300912;56;20967;-68
2023/12/28 03:05:38;;;;;;;4.75;1.40;;;14.00;65.00;;;;;;2301179;56;20952;-68
2023/12/28 03:08:05;;;;;;;2.40;1.00;;;14.00;65.00;;;;;;2538368;54;20947;-68
2023/12/28 03:10:31;;;;;;;2.20;1.10;;;14.00;65.00;;;;;;2300732;56;20967;-68
2023/12/28 03:12:59;;;;;;;2.70;1.12;;;14.00;65.30;;;;;;2300750;56;20959;-67
2023/12/28 03:15:25;;;;;;;2.70;1.02;;;14.10;65.40;;;;;;2298365;55;21037;-72
2023/12/28 03:17:51;;;;;;;2.55;0.90;;;14.10;65.60;;;;;;2508108;54;21419;-69
2023/12/28 03:20:18;;;;;;;2.97;1.10;;;14.10;65.70;;;;;;2537418;54;20952;-68
2023/12/28 03:22:45;;;;;;;3.40;1.15;;;14.20;65.80;;;;;;2537756;54;21263;-67
2023/12/28 03:25:13;;;;;;;3.80;1.40;;;14.20;65.80;;;;;;2287848;55;20977;-67
2023/12/28 03:27:40;;;;;;;2.00;1.00;;;14.30;65.90;;;;;;2288133;55;20943;-68
2023/12/28 03:30:10;;;;;;;2.50;1.15;;;14.30;65.80;;;;;;2300279;56;21031;-68
2023/12/28 03:32:36;;;;;;;2.58;1.15;;;14.40;65.80;;;;;;2300608;56;20928;-67
2023/12/28 03:35:03;;;;;;;2.92;1.20;;;14.40;65.70;;;;;;2300670;56;21715;-68
2023/12/28 03:37:29;;;;;;;2.62;1.17;;;14.40;65.60;;;;;;2502025;54;20964;-67
2023/12/28 03:39:56;;;;;;;3.00;1.10;;;14.50;65.50;;;;;;2530543;54;21061;-67
2023/12/28 03:42:22;;;;;;;3.22;1.10;;;14.50;65.30;;;;;;2494427;55;21002;-68
2023/12/28 03:44:51;;;;;;;2.75;1.12;;;14.50;65.20;;;;;;2290423;55;20933;-67
2023/12/28 03:47:20;;;;;;;4.85;1.00;;;14.50;65.10;;;;;;2300541;55;21054;-67
2023/12/28 03:49:46;;;;;;;2.80;1.20;;;14.50;65.10;;;;;;2278422;56;21533;-68
2023/12/28 03:52:13;;;;;;;3.22;1.30;;;14.60;65.20;;;;;;2509491;55;20956;-67
2023/12/28 03:54:39;;;;;;;2.85;1.00;;;14.60;65.10;;;;;;2278364;55;21242;-68
2023/12/28 03:57:06;;;;;;;2.75;1.30;;;14.60;65.00;;;;;;2509142;55;20960;-67
2023/12/28 03:59:32;;;;;;;3.78;1.20;;;14.60;65.00;;;;;;2278032;57;21012;-68
2023/12/28 04:01:58;;;;;;;3.00;1.10;;;14.60;64.90;;;;;;2508807;54;20960;-68
2023/12/28 04:04:26;;;;;;;2.65;0.88;;;14.60;64.90;;;;;;2278056;57;20964;-68
2023/12/28 04:06:52;;;;;;;2.30;1.02;;;14.60;64.90;;;;;;2277429;55;21874;-68
2023/12/28 04:09:19;;;;;;;2.35;1.05;;;14.60;64.90;;;;;;2509434;55;20944;-68
2023/12/28 04:11:46;;;;;;;2.58;1.10;;;14.60;64.70;;;;;;2280725;55;21020;-68
2023/12/28 04:14:15;;;;;;;2.60;1.20;;;14.60;64.70;;;;;;2509528;54;21048;-68
2023/12/28 04:16:41;;;;;;;2.95;1.35;;;14.70;64.80;;;;;;2509828;55;20944;-68
2023/12/28 04:19:07;;;;;;;2.97;1.10;;;14.70;64.60;;;;;;2509413;54;21526;-68
2023/12/28 04:21:34;;;;;;;2.33;1.02;;;14.60;64.60;;;;;;2277981;55;20943;-68
2023/12/28 04:24:02;;;;;;;2.67;1.10;;;14.70;64.80;;;;;;2508518;55;21514;-68
2023/12/28 04:26:28;;;;;;;2.67;1.05;;;14.70;64.90;;;;;;2277372;55;21064;-68
2023/12/28 04:28:54;;;;;;;2.42;1.10;;;14.70;65.00;;;;;;2276830;55;20977;-67
2023/12/28 04:31:21;;;;;;;2.92;1.20;;;14.70;64.90;;;;;;2277049;57;20953;-68
2023/12/28 04:33:47;;;;;;;3.97;1.20;;;14.70;65.00;;;;;;2508502;55;20971;-67
2023/12/28 04:36:14;;;;;;;2.37;1.12;;;14.70;65.00;;;;;;2509541;54;21536;-68
2023/12/28 04:38:41;;;;;;;2.83;1.08;;;14.70;64.90;;;;;;2509698;54;20937;-68
2023/12/28 04:41:09;;;;;;;3.67;1.10;;;14.80;65.00;;;;;;2273190;56;20925;-68
2023/12/28 04:43:35;;;;;;;4.12;1.10;;;14.70;64.90;;;;;;2272353;55;20952;-67
2023/12/28 04:46:07;;;;;;;2.97;1.30;;;14.80;65.00;;;;;;2510831;55;21003;-67
2023/12/28 04:48:34;;;;;;;;;;;14.80;64.30;;;;;;2281050;57;20973;-68
2023/12/28 04:51:02;;;;;;;2.55;1.08;;;14.80;62.70;;;;;;2509008;54;20816;-67
2023/12/28 04:53:29;;;;;;;2.85;0.95;;;14.80;65.30;;;;;;2265302;56;20985;-68
2023/12/28 04:55:55;;;;;;;2.35;0.85;;;14.80;65.30;;;;;;2275259;55;20959;-68
2023/12/28 04:58:22;;;;;;;4.10;1.10;;;14.80;65.20;;;;;;2277498;55;21016;-67
2023/12/28 05:00:48;;;;;;;2.83;1.08;;;14.80;65.20;;;;;;2508472;55;20937;-67
2023/12/28 05:03:17;;;;;;;3.67;1.45;;;14.90;65.30;;;;;;2277109;55;20972;-68
2023/12/28 05:05:44;;;;;;;3.10;1.27;;;14.80;65.20;;;;;;2508908;54;20960;-68
2023/12/28 05:08:10;;;;;;;2.60;1.17;;;14.90;65.20;;;;;;2277519;57;20988;-68
2023/12/28 05:10:36;;;;;;;2.28;1.00;;;14.90;65.10;;;;;;2510524;55;20940;-67
2023/12/28 05:13:03;;;;;;;3.35;1.17;;;14.90;65.10;;;;;;2277413;55;21877;-67
2023/12/28 05:15:30;;;;;;;2.75;1.08;;;14.90;65.10;;;;;;2509663;55;20996;-68
2023/12/28 05:17:56;;;;;;;2.78;1.30;;;14.90;65.10;;;;;;2508139;54;20949;-69
2023/12/28 05:20:23;;;;;;;2.40;1.10;;;14.90;65.10;;;;;;2512257;55;21463;-68
2023/12/28 05:22:50;;;;;;;2.58;1.23;;;14.90;65.00;;;;;;2279008;56;20944;-67
2023/12/28 05:25:17;;;;;;;3.08;1.50;;;14.80;64.90;;;;;;2276912;55;21105;-68
2023/12/28 05:27:43;;;;;;;2.40;1.10;;;14.90;65.00;;;;;;2276710;56;21000;-68
2023/12/28 05:30:13;;;;;;;4.05;1.20;;;14.90;65.00;;;;;;2275383;55;20977;-67
2023/12/28 05:32:40;;;;;;;2.50;1.20;;;15.00;65.10;;;;;;2509241;54;21035;-68
2023/12/28 05:35:07;;;;;;;2.47;1.20;;;15.00;65.20;;;;;;2278997;55;21082;-67
2023/12/28 05:37:33;;;;;;;2.72;1.15;;;15.00;65.20;;;;;;2509215;55;20972;-68
2023/12/28 05:40:01;;;;;;;2.33;0.90;;;15.00;65.20;;;;;;2277038;57;21000;-68
2023/12/28 05:42:27;;;;;;;2.78;1.15;;;15.00;65.20;;;;;;2281113;55;20969;-68
2023/12/28 05:44:53;;;;;;;2.42;0.88;;;15.00;65.10;;;;;;2509568;54;21011;-68
2023/12/28 05:47:20;;;;;;;3.53;1.23;;;15.00;65.10;;;;;;2278965;57;21097;-67
2023/12/28 05:49:47;;;;;;;2.53;1.00;;;15.10;65.10;;;;;;2280135;55;21045;-68
2023/12/28 05:52:16;;;;;;;2.78;1.20;;;15.10;65.10;;;;;;2277540;55;21008;-67
2023/12/28 05:54:43;;;;;;;2.90;1.30;;;15.10;65.10;;;;;;2277665;56;21401;-67
2023/12/28 05:57:10;;;;;;;2.85;1.05;;;15.20;65.20;;;;;;2508897;55;20965;-69
2023/12/28 05:59:39;;;;;;;2.53;1.10;;;15.10;65.10;;;;;;2509507;54;22550;-68
2023/12/28 06:02:05;;;;;;;2.58;1.05;;;15.10;65.00;;;;;;2508900;55;21036;-67
2023/12/28 06:04:33;;;;;;;2.97;1.30;;;15.10;65.10;;;;;;2279671;56;21017;-68
2023/12/28 06:06:59;;;;;;;3.40;1.15;;;15.10;65.10;;;;;;2277189;57;20944;-68
2023/12/28 06:09:27;;;;;;;2.45;1.10;;;15.20;65.10;;;;;;2277708;57;20976;-67
2023/12/28 06:11:54;;;;;;;2.25;0.90;;;15.20;65.10;;;;;;2509793;55;21210;-67
2023/12/28 06:14:21;;;;;;;2.85;1.30;;;15.20;65.00;;;;;;2277436;56;21452;-68
2023/12/28 06:16:48;;;;;;;3.10;1.10;;;15.20;65.00;;;;;;2499175;54;21016;-67
2023/12/28 06:19:14;;;;;;;2.78;1.20;;;15.20;65.10;;;;;;2271209;55;21012;-68
2023/12/28 06:21:42;;;;;;;4.25;1.05;;;15.20;65.10;;;;;;2280133;55;21015;-68
2023/12/28 06:24:09;;;;;;;3.08;1.25;;;15.20;65.20;;;;;;2276271;56;21048;-68
2023/12/28 06:26:39;;;;;;;3.95;1.23;;;15.20;65.00;;;;;;2509387;55;21740;-68
2023/12/28 06:29:06;;;;;;;2.65;1.10;;;15.20;64.40;;;;;;2276678;57;20920;-68
2023/12/28 06:31:35;;;;;;;3.12;1.10;;;15.20;64.90;;;;;;2279903;55;20986;-67
2023/12/28 06:34:05;;;;;;;3.08;1.40;;;15.20;65.00;;;;;;2276886;55;21002;-67
2023/12/28 06:36:32;;;;;;;2.97;1.27;;;15.20;64.90;;;;;;2509273;54;20972;-67
2023/12/28 06:38:58;;;;;;;2.78;1.00;;;15.20;65.00;;;;;;2278166;55;21024;-68
2023/12/28 06:41:26;;;;;;;4.57;1.20;;;15.30;64.90;;;;;;2285054;56;21521;-68
2023/12/28 06:43:55;;;;;;;4.15;1.40;;;15.30;64.90;;;;;;2258901;56;21016;-68
2023/12/28 06:46:24;;;;;;;4.87;1.40;;;15.30;64.50;;;;;;2278071;55;21100;-68
2023/12/28 06:48:51;;;;;;;4.12;1.27;;;15.30;64.50;;;;;;2276986;56;21043;-68
2023/12/28 06:51:21;;;;;;;2.85;0.90;;;15.40;65.10;;;;;;2260284;56;20975;-67
2023/12/28 06:53:48;;;;;;;2.78;1.08;;;15.30;64.70;;;;;;2486667;54;21041;-67
2023/12/28 06:56:15;;;;;;;3.65;1.42;;;15.30;65.00;;;;;;2261981;55;20979;-68
2023/12/28 06:58:41;;;;;;;2.90;1.20;;;15.30;64.80;;;;;;2490923;54;21027;-67
2023/12/28 07:01:08;;;;;;;2.33;1.00;;;15.30;64.70;;;;;;2261256;56;21909;-68
2023/12/28 07:03:34;;;;;;;2.17;1.00;;;15.30;64.80;;;;;;2251566;55;21823;-68
2023/12/28 07:06:01;;;;;;;4.15;1.40;;;15.30;64.80;;;;;;2480186;55;21088;-67
2023/12/28 07:08:28;;;;;;;3.58;1.42;;;15.30;64.80;;;;;;2488806;55;21213;-68
2023/12/28 07:10:54;;;;;;;3.78;1.45;;;15.30;64.90;;;;;;2466747;56;21005;-68
2023/12/28 07:13:20;;;;;;;2.95;1.02;;;15.30;64.90;;;;;;2242768;56;21030;-68
2023/12/28 07:15:47;;;;;;;3.17;1.20;;;15.30;64.90;;;;;;2478278;55;20943;-68
2023/12/28 07:18:13;;;;;;;3.62;1.30;;;15.40;65.00;;;;;;2482584;55;21748;-68
2023/12/28 07:20:43;;;;;;;4.40;1.17;;;15.40;65.00;;;;;;2261632;57;21040;-68
2023/12/28 07:23:09;;;;;;;2.58;1.25;;;15.40;65.10;;;;;;2476019;55;21099;-68
2023/12/28 07:25:35;;;;;;;2.90;1.20;;;15.40;65.00;;;;;;2478073;55;21001;-68
2023/12/28 07:28:03;;;;;;;2.67;1.10;;;15.40;65.00;;;;;;2232197;56;21026;-68
2023/12/28 07:30:29;;;;;;;2.47;1.20;;;15.40;65.00;;;;;;2256645;56;21036;-68
2023/12/28 07:32:56;;;;;;;3.25;1.25;;;15.50;65.00;;;;;;2259668;56;20980;-67
2023/12/28 07:35:22;;;;;;;3.33;1.35;;;15.40;64.90;;;;;;2467731;55;20978;-68
2023/12/28 07:37:49;;;;;;;2.60;1.17;;;15.40;64.80;;;;;;2263371;55;21888;-68
2023/12/28 07:40:16;;;;;;;3.15;1.00;;;15.50;64.90;;;;;;2251789;56;22137;-68
2023/12/28 07:42:42;;;;;;;4.12;1.15;;;15.40;64.70;;;;;;2251799;56;20963;-67
2023/12/28 07:45:08;;;;;;;3.80;1.25;;;15.40;64.60;;;;;;2479979;54;20975;-68
2023/12/28 07:47:35;;;;;;;2.70;1.20;;;15.40;64.70;;;;;;2493928;54;20959;-69
2023/12/28 07:50:03;;;;;;;3.25;1.40;;;15.40;64.80;;;;;;2258079;55;21153;-67
2023/12/28 07:52:29;;;;;;;2.83;1.20;;;15.40;64.50;;;;;;2255109;56;21045;-68
2023/12/28 07:54:56;;;;;;;3.30;1.48;;;15.40;64.80;;;;;;2260719;56;20955;-68
2023/12/28 07:57:24;;;;;;;4.00;1.65;;;15.40;64.80;;;;;;2254951;56;21000;-69
2023/12/28 07:59:50;;;;;;;3.50;1.70;;;15.40;64.50;;;;;;2269568;55;20976;-67
2023/12/28 08:02:16;;;;;;;4.40;1.98;;;15.30;64.50;;;;;;2254084;55;21052;-68
2023/12/28 08:04:44;;;;;;;4.53;1.98;;;15.30;64.40;;;;;;2454043;55;21110;-68
2023/12/28 08:07:10;;;;;;;5.87;2.95;;;15.30;64.30;;;;;;2253022;55;21071;-69
2023/12/28 08:09:41;;;;;;;4.60;2.42;;;15.30;64.20;;;;;;2256061;57;21008;-67
2023/12/28 08:12:07;;;;;;;4.72;2.58;;;15.20;63.90;;;;;;2508209;55;21242;-68
2023/12/28 08:14:33;;;;;;;7.05;3.25;;;15.20;64.20;;;;;;2281050;56;21068;-68
2023/12/28 08:17:00;;;;;;;9.02;4.37;;;15.20;64.20;;;;;;2511856;55;21324;-68
2023/12/28 08:19:26;;;;;;;8.57;4.03;;;15.10;64.40;;;;;;2509363;55;21434;-68
2023/12/28 08:21:55;;;;;;;8.38;4.05;;;15.10;64.50;;;;;;2277880;57;20977;-68
2023/12/28 08:24:22;;;;;;;6.55;3.20;;;15.10;64.60;;;;;;2277371;57;21358;-68
2023/12/28 08:26:49;;;;;;;5.72;3.17;;;15.10;64.70;;;;;;2277159;57;20988;-68
2023/12/28 08:29:16;;;;;;;6.10;2.90;;;15.00;64.60;;;;;;2276655;57;21273;-67
2023/12/28 08:31:42;;;;;;;10.95;5.70;;;15.00;64.60;;;;;;2277641;55;21008;-68
2023/12/28 08:34:10;;;;;;;12.13;6.57;;;14.90;64.50;;;;;;2457025;55;20955;-67
2023/12/28 08:36:37;;;;;;;7.78;4.60;;;14.90;64.40;;;;;;2255804;56;21888;-68
2023/12/28 08:39:04;;;;;;;5.72;3.28;;;14.90;64.40;;;;;;2485816;55;21514;-67
2023/12/28 08:41:30;;;;;;;6.50;2.90;;;14.90;64.30;;;;;;2261941;55;21000;-68
2023/12/28 08:43:56;;;;;;;4.22;2.37;;;14.90;64.30;;;;;;2254451;55;21038;-68
2023/12/28 08:46:25;;;;;;;3.03;1.52;;;14.80;64.20;;;;;;2251644;56;21002;-68
2023/12/28 08:48:51;;;;;;;5.03;1.70;;;14.80;64.20;;;;;;2490241;55;20975;-68
2023/12/28 08:51:18;;;;;;;3.42;1.42;;;14.80;64.10;;;;;;2462251;55;20994;-68
2023/12/28 08:53:44;;;;;;;3.00;1.20;;;14.80;64.20;;;;;;2247593;56;20939;-68
2023/12/28 08:56:17;;;;;;;3.17;1.50;;;14.70;64.30;;;;;;2246225;56;20955;-68
2023/12/28 08:58:44;;;;;;;3.05;1.37;;;14.70;63.70;;;;;;2265719;56;21034;-68
2023/12/28 09:01:21;;;;;;;3.22;1.40;;;14.80;64.50;;;;;;2241889;56;20977;-69
2023/12/28 09:03:50;;;;;;;3.53;1.23;;;14.70;63.70;;;;;;2234195;56;20980;-68
2023/12/28 09:06:17;;;;;;;3.03;1.10;;;14.70;64.30;;;;;;2239200;56;20998;-67
2023/12/28 09:08:44;;;;;;;2.53;1.23;;;14.70;64.80;;;;;;2247096;56;20955;-67
2023/12/28 09:11:11;;;;;;;2.45;1.20;;;14.70;65.00;;;;;;2238385;55;20981;-68
2023/12/28 09:13:41;;;;;;;3.58;1.42;;;14.70;64.90;;;;;;2472303;55;20974;-67
2023/12/28 09:16:08;;;;;;;4.25;1.27;;;14.70;64.80;;;;;;2246109;57;20939;-69
2023/12/28 09:18:37;;;;;;;2.75;1.27;;;14.70;65.10;;;;;;2236793;56;21563;-67
2023/12/28 09:21:12;;;;;;;3.08;1.60;;;14.70;65.20;;;;;;2272059;56;21020;-67
2023/12/28 09:23:40;;;;;;;4.60;1.70;;;14.80;64.50;;;;;;2242527;56;21011;-67
2023/12/28 09:26:06;;;;;;;9.18;2.95;;;14.70;65.30;;;;;;2460691;55;20994;-69
2023/12/28 09:28:33;;;;;;;9.38;4.68;;;14.70;65.50;;;;;;2452998;56;21814;-67
2023/12/28 09:31:00;;;;;;;15.75;9.05;;;14.80;65.70;;;;;;2467328;55;21039;-67
2023/12/28 09:33:26;;;;;;;18.12;10.50;;;14.80;65.70;;;;;;2463496;55;21014;-67
2023/12/28 09:35:56;;;;;;;15.90;9.52;;;14.80;65.90;;;;;;2256383;56;21454;-68
2023/12/28 09:38:22;;;;;;;14.18;7.62;;;14.80;65.90;;;;;;2249209;56;20949;-67
2023/12/28 09:40:51;;;;;;;11.57;6.30;;;14.80;65.90;;;;;;2465745;55;20955;-67
2023/12/28 09:43:25;;;;;;;8.00;4.62;;;14.90;65.90;;;;;;2245802;56;20963;-67
2023/12/28 09:45:52;;;;;;;5.37;3.10;;;14.90;65.70;;;;;;2236697;56;21841;-67
2023/12/28 09:48:20;;;;;;;5.37;3.00;;;14.90;66.10;;;;;;2245995;57;21838;-67
2023/12/28 09:50:51;;;;;;;4.87;2.47;;;15.00;67.00;;;;;;2251424;56;20970;-68
2023/12/28 09:53:17;;;;;;;3.83;1.80;;;15.00;65.90;;;;;;2483205;55;21020;-68
2023/12/28 09:55:46;;;;;;;3.62;1.30;;;15.00;66.20;;;;;;2264150;56;21539;-67
2023/12/28 09:58:13;;;;;;;2.47;1.20;;;15.00;66.10;;;;;;2483926;54;20979;-67
2023/12/28 10:00:39;;;;;;;2.78;1.40;;;15.00;66.20;;;;;;2255741;56;21725;-68
2023/12/28 10:03:12;;;;;;;2.70;1.12;;;15.10;66.30;;;;;;2482651;55;20978;-68
2023/12/28 10:05:38;;;;;;;3.20;1.23;;;15.10;66.00;;;;;;2261303;55;20994;-68
2023/12/28 10:08:05;;;;;;;3.22;1.50;;;15.10;66.20;;;;;;2484406;55;21014;-68
2023/12/28 10:10:33;;;;;;;4.87;2.50;;;15.10;66.10;;;;;;2255691;56;20946;-68
2023/12/28 10:13:00;;;;;;;5.40;2.35;;;15.20;66.30;;;;;;2483415;55;21421;-68
2023/12/28 10:15:26;;;;;;;3.65;1.65;;;15.00;66.00;;;;;;2254554;55;20959;-68
2023/12/28 10:17:53;;;;;;;4.18;1.70;;;15.20;66.30;;;;;;2489969;54;20961;-67
2023/12/28 10:20:38;;;;;;;7.55;3.28;;;15.20;66.20;;;;;;2481644;55;21309;-67
2023/12/28 10:23:06;;;;;;;7.22;3.47;;;15.30;64.90;;;;;;2256092;55;20990;-67
2023/12/28 10:25:34;;;;;;;9.50;4.82;;;15.30;66.40;;;;;;2282214;55;21028;-68
2023/12/28 10:28:05;;;;;;;12.00;5.35;;;15.30;66.40;;;;;;2488658;54;21473;-67
2023/12/28 10:30:32;;;;;;;12.00;6.18;;;15.30;66.20;;;;;;2483705;55;21051;-68
2023/12/28 10:32:58;;;;;;;11.65;5.55;;;15.30;66.50;;;;;;2256050;56;20975;-68
2023/12/28 10:35:25;;;;;;;8.05;4.25;;;15.40;66.70;;;;;;2255792;56;20938;-67
2023/12/28 10:37:53;;;;;;;6.03;2.92;;;15.40;66.70;;;;;;2484135;55;21299;-68
2023/12/28 10:40:20;;;;;;;4.32;2.12;;;15.40;66.80;;;;;;2489178;55;20982;-68
2023/12/28 10:43:01;;;;;;;4.28;1.90;;;15.40;66.80;;;;;;2480860;55;20947;-68
2023/12/28 10:45:29;;;;;;;2.90;1.33;;;15.50;66.60;;;;;;2255355;55;21078;-68
2023/12/28 10:48:31;;;;;;;2.70;1.23;;;15.50;66.90;;;;;;2256652;55;21019;-68
2023/12/28 10:50:57;;;;;;;2.95;1.30;;;15.50;65.60;;;;;;2264913;56;21016;-68
2023/12/28 10:53:54;;;;;;;4.65;1.67;;;15.50;67.20;;;;;;2483660;55;20983;-68
2023/12/28 10:57:27;;;;;;;4.30;1.50;;;15.50;66.00;;;;;;2268319;55;21034;-68
2023/12/28 11:01:26;;;;;;;3.05;1.10;;;15.50;67.10;;;;;;2257273;55;21443;-69
2023/12/28 11:04:55;;;;;;;3.05;1.35;;;15.50;65.50;;;;;;2272919;55;20924;-68
2023/12/28 11:07:21;;;;;;;2.60;1.17;;;15.50;67.30;;;;;;2483834;55;21070;-67
2023/12/28 11:09:48;;;;;;;3.55;1.35;;;15.50;67.60;;;;;;2483975;55;20927;-68
2023/12/28 11:12:17;;;;;;;3.53;1.12;;;15.50;67.60;;;;;;2256036;56;21510;-68
2023/12/28 11:14:48;;;;;;;3.53;1.50;;;15.50;67.60;;;;;;2490012;54;21019;-68
2023/12/28 11:17:18;;;;;;;3.08;1.42;;;15.50;67.50;;;;;;2483055;55;21038;-68
2023/12/28 11:19:44;;;;;;;3.62;1.85;;;15.50;67.50;;;;;;2256010;55;20943;-68
2023/12/28 11:22:46;;;;;;;4.12;2.20;;;15.50;67.70;;;;;;2260978;56;21023;-67
2023/12/28 11:25:19;;;;;;;5.50;2.80;;;15.50;66.60;;;;;;2482315;55;21015;-67
2023/12/28 11:34:34;;;;;;;4.97;2.85;;;15.50;67.60;;;;;;2249473;56;21004;-67
2023/12/28 11:37:09;;;;;;;11.85;6.40;;;15.50;66.70;;;;;;2238196;57;20968;-68
2023/12/28 11:39:36;;;;;;;16.42;8.48;;;15.50;68.10;;;;;;2243534;55;20966;-68
2023/12/28 11:42:04;;;;;;;12.45;7.22;;;15.50;68.40;;;;;;2255648;55;21653;-69
2023/12/28 11:44:31;;;;;;;8.45;4.75;;;15.50;68.40;;;;;;2482715;55;21127;-70
2023/12/28 11:46:58;;;;;;;7.15;3.70;;;15.50;68.50;;;;;;2483004;55;21011;-70
2023/12/28 11:49:30;;;;;;;7.62;3.00;;;15.50;68.60;;;;;;2256301;55;20946;-68
2023/12/28 11:51:58;;;;;;;4.37;2.47;;;15.50;68.50;;;;;;2255193;55;21034;-68
2023/12/28 11:54:25;;;;;;;5.10;2.45;;;15.50;68.70;;;;;;2481971;55;20997;-68
2023/12/28 11:56:52;;;;;;;3.72;1.90;;;15.50;68.70;;;;;;2255739;55;21749;-68
2023/12/28 11:59:20;;;;;;;3.00;1.50;;;15.40;68.60;;;;;;2260792;56;21476;-68
2023/12/28 12:01:52;;;;;;;10.15;4.62;;;15.40;68.60;;;;;;2256058;55;20955;-69
2023/12/28 12:04:19;;;;;;;7.60;3.50;;;15.50;68.60;;;;;;2255558;55;20946;-69
2023/12/28 12:06:52;;;;;;;7.25;3.65;;;15.50;68.70;;;;;;2257367;55;20987;-69
2023/12/28 12:09:22;;;;;;;;;;;15.40;68.60;;;;;;2261376;56;20954;-68
2023/12/28 12:11:49;;;;;;;4.75;2.50;;;15.50;67.40;;;;;;2271135;55;20105;-68
2023/12/28 12:14:15;;;;;;;5.18;2.97;;;15.50;68.80;;;;;;2257076;55;21002;-69
2023/12/28 12:16:42;;;;;;;5.87;3.30;;;15.40;68.80;;;;;;2465967;55;21029;-68
2023/12/28 12:19:13;;;;;;;5.18;2.87;;;15.40;68.80;;;;;;2255153;55;20966;-70
2023/12/28 12:21:39;;;;;;;6.72;3.65;;;15.40;68.80;;;;;;2255555;55;20966;-68
2023/12/28 12:24:06;;;;;;;5.35;2.83;;;15.40;68.80;;;;;;2263217;55;21633;-71
2023/12/28 12:26:33;;;;;;;5.32;2.25;;;15.40;68.70;;;;;;2258055;56;20990;-69
2023/12/28 12:28:59;;;;;;;4.50;2.17;;;15.40;68.70;;;;;;2255281;56;20958;-68
2023/12/28 12:31:26;;;;;;;3.67;2.12;;;15.40;68.60;;;;;;2255691;56;21067;-69
2023/12/28 12:33:52;;;;;;;4.78;2.40;;;15.40;68.60;;;;;;2483298;55;20974;-70
2023/12/28 12:36:19;;;;;;;3.75;2.05;;;15.40;68.70;;;;;;2255717;56;20966;-70
2023/12/28 12:38:48;;;;;;;6.68;2.28;;;15.30;68.60;;;;;;2486884;55;21007;-69
2023/12/28 12:41:16;;;;;;;4.18;2.03;;;15.30;68.70;;;;;;2255157;56;20970;-69
2023/12/28 12:43:42;;;;;;;4.75;2.30;;;15.30;68.70;;;;;;2255878;56;20918;-70
2023/12/28 12:46:08;;;;;;;4.53;2.30;;;15.30;68.80;;;;;;2483391;55;21074;-69
2023/12/28 12:48:35;;;;;;;4.90;2.70;;;15.20;68.80;;;;;;2483568;55;21141;-69
2023/12/28 12:51:03;;;;;;;5.12;2.25;;;15.30;69.00;;;;;;2487241;55;21360;-70
2023/12/28 12:53:36;;;;;;;4.03;2.30;;;15.20;68.90;;;;;;2281645;55;20972;-70
2023/12/28 12:56:26;;;;;;;4.45;2.37;;;15.20;68.60;;;;;;2256452;55;21789;-71
2023/12/28 12:58:56;;;;;;;5.65;2.90;;;15.20;68.20;;;;;;2261439;55;21022;-69
2023/12/28 13:01:24;;;;;;;5.65;2.70;;;15.20;68.90;;;;;;2486059;54;20990;-71
2023/12/28 13:03:50;;;;;;;3.67;1.87;;;15.20;68.90;;;;;;2257959;55;20947;-69
2023/12/28 13:06:17;;;;;;;3.33;1.80;;;15.10;68.90;;;;;;2255864;56;21480;-72